sensor_id;sensor_type;location;lat;lon;timestamp;pressure;altitude;pressure_sealevel;temperature;humidity
13732;BME280;6937;56.096;12.664;2023-02-01T00:00:45;99422.72;;;4.65;100.00
13732;BME280;6937;56.096;12.664;2023-02-01T00:03:11;99411.19;;;4.66;100.00
13732;BME280;6937;56.096;12.664;2023-02-01T00:05:38;99400.75;;;4.65;100.00
13732;BME280;6937;56.096;12.664;2023-02-01T00:08:03;99406.03;;;4.65;100.00
13732;BME280;6937;56.096;12.664;2023-02-01T00:10:29;99406.03;;;4.65;100.00
13732;BME280;6937;56.096;12.664;2023-02-01T00:12:54;99403.38;;;4.65;100.00
13732;BME280;6937;56.096;12.664;2023-02-01T00:15:20;99419.44;;;4.62;100.00
13732;BME280;6937;56.096;12.664;2023-02-01T00:17:46;99398.81;;;4.67;100.00
13732;BME280;6937;56.096;12.664;2023-02-01T00:20:11;99410.03;;;4.70;100.00
13732;BME280;6937;56.096;12.664;2023-02-01T00:22:36;99390.25;;;4.63;100.00
13732;BME280;6937;56.096;12.664;2023-02-01T00:25:02;99384.72;;;4.66;100.00
13732;BME280;6937;56.096;12.664;2023-02-01T00:27:27;99387.28;;;4.68;100.00
13732;BME280;6937;56.096;12.664;2023-02-01T00:29:54;99391.28;;;4.73;100.00
13732;BME280;6937;56.096;12.664;2023-02-01T00:32:20;99394.69;;;4.75;100.00
13732;BME280;6937;56.096;12.664;2023-02-01T00:34:46;99395.31;;;4.79;100.00
13732;BME280;6937;56.096;12.664;2023-02-01T00:37:11;99385.69;;;4.78;100.00
13732;BME280;6937;56.096;12.664;2023-02-01T00:39:36;99378.59;;;4.78;100.00
13732;BME280;6937;56.096;12.664;2023-02-01T00:42:02;99376.56;;;4.82;100.00
13732;BME280;6937;56.096;12.664;2023-02-01T00:44:27;99374.38;;;4.76;100.00
13732;BME280;6937;56.096;12.664;2023-02-01T00:46:53;99381.88;;;4.82;100.00
13732;BME280;6937;56.096;12.664;2023-02-01T00:49:18;99392.22;;;4.85;100.00
13732;BME280;6937;56.096;12.664;2023-02-01T00:51:43;99406.31;;;4.85;100.00
13732;BME280;6937;56.096;12.664;2023-02-01T00:54:08;99415.94;;;4.86;100.00
13732;BME280;6937;56.096;12.664;2023-02-01T00:56:34;99406.09;;;4.88;100.00
13732;BME280;6937;56.096;12.664;2023-02-01T00:58:59;99417.53;;;4.89;100.00
13732;BME280;6937;56.096;12.664;2023-02-01T01:01:26;99399.00;;;4.89;100.00
13732;BME280;6937;56.096;12.664;2023-02-01T01:03:57;99421.03;;;4.90;100.00
13732;BME280;6937;56.096;12.664;2023-02-01T01:06:28;99407.47;;;4.94;100.00
13732;BME280;6937;56.096;12.664;2023-02-01T01:08:55;99411.06;;;4.93;100.00
13732;BME280;6937;56.096;12.664;2023-02-01T01:11:24;99390.19;;;5.01;100.00
13732;BME280;6937;56.096;12.664;2023-02-01T01:13:51;99390.19;;;5.01;100.00
13732;BME280;6937;56.096;12.664;2023-02-01T01:16:17;99407.66;;;5.04;100.00
13732;BME280;6937;56.096;12.664;2023-02-01T01:18:43;99401.50;;;5.03;100.00
13732;BME280;6937;56.096;12.664;2023-02-01T01:21:11;99408.28;;;5.07;100.00
13732;BME280;6937;56.096;12.664;2023-02-01T01:23:37;99403.09;;;5.06;100.00
13732;BME280;6937;56.096;12.664;2023-02-01T01:26:07;99402.88;;;5.09;100.00
13732;BME280;6937;56.096;12.664;2023-02-01T01:28:33;99414.50;;;5.06;100.00
13732;BME280;6937;56.096;12.664;2023-02-01T01:30:59;99395.03;;;5.07;100.00
13732;BME280;6937;56.096;12.664;2023-02-01T01:33:24;99400.00;;;5.12;100.00
13732;BME280;6937;56.096;12.664;2023-02-01T01:35:49;99390.13;;;5.14;100.00
13732;BME280;6937;56.096;12.664;2023-02-01T01:38:15;99400.72;;;5.14;100.00
13732;BME280;6937;56.096;12.664;2023-02-01T01:40:44;99391.34;;;5.10;100.00
13732;BME280;6937;56.096;12.664;2023-02-01T01:43:15;99387.09;;;5.07;100.00
13732;BME280;6937;56.096;12.664;2023-02-01T01:45:40;99398.44;;;5.09;100.00
13732;BME280;6937;56.096;12.664;2023-02-01T01:51:02;99407.22;;;5.10;100.00
13732;BME280;6937;56.096;12.664;2023-02-01T01:53:34;99409.97;;;5.08;100.00
13732;BME280;6937;56.096;12.664;2023-02-01T01:56:01;99395.88;;;5.08;100.00
13732;BME280;6937;56.096;12.664;2023-02-01T01:58:27;99438.25;;;5.08;100.00
13732;BME280;6937;56.096;12.664;2023-02-01T02:00:54;99406.56;;;5.06;100.00
13732;BME280;6937;56.096;12.664;2023-02-01T02:03:35;99410.19;;;5.05;100.00
13732;BME280;6937;56.096;12.664;2023-02-01T02:06:05;99408.28;;;5.07;100.00
13732;BME280;6937;56.096;12.664;2023-02-01T02:08:34;99426.94;;;5.06;100.00
13732;BME280;6937;56.096;12.664;2023-02-01T02:11:00;99417.28;;;5.05;100.00
13732;BME280;6937;56.096;12.664;2023-02-01T02:13:49;99410.91;;;5.07;100.00
13732;BME280;6937;56.096;12.664;2023-02-01T02:19:10;99434.44;;;5.12;100.00
13732;BME280;6937;56.096;12.664;2023-02-01T02:32:46;99402.19;;;5.18;100.00
13732;BME280;6937;56.096;12.664;2023-02-01T02:35:36;99386.53;;;5.15;100.00
13732;BME280;6937;56.096;12.664;2023-02-01T02:40:53;99400.72;;;5.14;100.00
13732;BME280;6937;56.096;12.664;2023-02-01T02:43:32;99389.31;;;5.13;100.00
13732;BME280;6937;56.096;12.664;2023-02-01T02:46:24;99379.16;;;5.07;100.00
13732;BME280;6937;56.096;12.664;2023-02-01T02:49:39;99383.41;;;4.97;100.00
13732;BME280;6937;56.096;12.664;2023-02-01T02:52:14;99396.22;;;5.03;100.00
13732;BME280;6937;56.096;12.664;2023-02-01T02:55:02;99397.50;;;4.98;100.00
13732;BME280;6937;56.096;12.664;2023-02-01T02:57:36;99392.44;;;4.95;100.00
13732;BME280;6937;56.096;12.664;2023-02-01T03:00:24;99390.50;;;4.97;100.00
13732;BME280;6937;56.096;12.664;2023-02-01T03:03:10;99395.09;;;4.95;100.00
13732;BME280;6937;56.096;12.664;2023-02-01T03:05:55;99403.34;;;4.90;100.00
13732;BME280;6937;56.096;12.664;2023-02-01T03:08:23;99405.88;;;4.92;100.00
13732;BME280;6937;56.096;12.664;2023-02-01T03:16:18;99406.94;;;4.89;100.00
13732;BME280;6937;56.096;12.664;2023-02-01T03:18:58;99394.66;;;4.88;100.00
13732;BME280;6937;56.096;12.664;2023-02-01T03:22:02;99392.53;;;4.93;100.00
13732;BME280;6937;56.096;12.664;2023-02-01T03:27:04;99406.50;;;4.95;100.00
13732;BME280;6937;56.096;12.664;2023-02-01T03:29:38;99407.69;;;4.91;100.00
13732;BME280;6937;56.096;12.664;2023-02-01T03:32:05;99410.22;;;4.93;100.00
13732;BME280;6937;56.096;12.664;2023-02-01T03:34:31;99399.94;;;5.01;100.00
13732;BME280;6937;56.096;12.664;2023-02-01T03:37:03;99404.38;;;5.00;100.00
13732;BME280;6937;56.096;12.664;2023-02-01T03:39:37;99410.91;;;5.07;100.00
13732;BME280;6937;56.096;12.664;2023-02-01T03:42:18;99404.59;;;5.10;100.00
13732;BME280;6937;56.096;12.664;2023-02-01T03:44:58;99404.91;;;5.05;100.00
13732;BME280;6937;56.096;12.664;2023-02-01T03:47:30;99389.03;;;5.05;100.00
13732;BME280;6937;56.096;12.664;2023-02-01T03:50:00;99401.28;;;5.06;100.00
13732;BME280;6937;56.096;12.664;2023-02-01T03:52:31;99389.97;;;5.04;100.00
13732;BME280;6937;56.096;12.664;2023-02-01T03:54:58;99381.06;;;5.05;100.00
13732;BME280;6937;56.096;12.664;2023-02-01T03:57:31;99392.63;;;5.04;100.00
13732;BME280;6937;56.096;12.664;2023-02-01T04:02:32;99384.28;;;4.98;100.00
13732;BME280;6937;56.096;12.664;2023-02-01T04:04:58;99391.59;;;4.94;100.00
13732;BME280;6937;56.096;12.664;2023-02-01T04:07:23;99380.38;;;4.91;100.00
13732;BME280;6937;56.096;12.664;2023-02-01T04:09:48;99383.88;;;4.91;100.00
13732;BME280;6937;56.096;12.664;2023-02-01T04:12:14;99380.16;;;4.94;100.00
13732;BME280;6937;56.096;12.664;2023-02-01T04:14:39;99376.34;;;4.98;100.00
13732;BME280;6937;56.096;12.664;2023-02-01T04:17:04;99370.19;;;4.97;100.00
13732;BME280;6937;56.096;12.664;2023-02-01T04:19:30;99378.84;;;4.99;100.00
13732;BME280;6937;56.096;12.664;2023-02-01T04:21:55;99404.59;;;4.97;100.00
13732;BME280;6937;56.096;12.664;2023-02-01T04:24:20;99395.91;;;4.95;100.00
13732;BME280;6937;56.096;12.664;2023-02-01T04:26:46;99374.53;;;4.98;100.00
13732;BME280;6937;56.096;12.664;2023-02-01T04:29:11;99375.16;;;5.02;100.00
13732;BME280;6937;56.096;12.664;2023-02-01T04:31:36;99359.59;;;4.97;100.00
13732;BME280;6937;56.096;12.664;2023-02-01T04:34:02;99370.19;;;4.97;100.00
13732;BME280;6937;56.096;12.664;2023-02-01T04:36:27;99394.97;;;4.96;100.00
13732;BME280;6937;56.096;12.664;2023-02-01T04:38:53;99366.59;;;4.98;100.00
13732;BME280;6937;56.096;12.664;2023-02-01T04:41:19;99368.47;;;4.96;100.00
13732;BME280;6937;56.096;12.664;2023-02-01T04:43:48;99369.44;;;4.95;100.00
13732;BME280;6937;56.096;12.664;2023-02-01T04:46:13;99357.41;;;4.91;100.00
13732;BME280;6937;56.096;12.664;2023-02-01T04:48:39;99355.78;;;4.88;100.00
13732;BME280;6937;56.096;12.664;2023-02-01T04:51:04;99344.25;;;4.90;100.00
13732;BME280;6937;56.096;12.664;2023-02-01T04:53:30;99340.75;;;4.89;100.00
13732;BME280;6937;56.096;12.664;2023-02-01T04:55:55;99336.66;;;4.85;100.00
13732;BME280;6937;56.096;12.664;2023-02-01T04:58:21;99335.06;;;4.82;100.00
13732;BME280;6937;56.096;12.664;2023-02-01T05:00:47;99329.78;;;4.82;100.00
13732;BME280;6937;56.096;12.664;2023-02-01T05:03:12;99329.78;;;4.82;100.00
13732;BME280;6937;56.096;12.664;2023-02-01T05:05:38;99344.91;;;4.80;100.00
13732;BME280;6937;56.096;12.664;2023-02-01T05:08:04;99338.75;;;4.80;100.00
13732;BME280;6937;56.096;12.664;2023-02-01T05:10:29;99337.81;;;4.81;100.00
13732;BME280;6937;56.096;12.664;2023-02-01T05:12:55;99336.66;;;4.85;100.00
13732;BME280;6937;56.096;12.664;2023-02-01T05:15:39;99335.16;;;4.81;100.00
13732;BME280;6937;56.096;12.664;2023-02-01T05:18:04;99334.22;;;4.82;100.00
13732;BME280;6937;56.096;12.664;2023-02-01T05:20:29;99331.91;;;4.77;100.00
13732;BME280;6937;56.096;12.664;2023-02-01T05:22:55;99348.31;;;4.82;100.00
13732;BME280;6937;56.096;12.664;2023-02-01T05:25:20;99336.13;;;4.80;100.00
13732;BME280;6937;56.096;12.664;2023-02-01T05:27:46;99341.41;;;4.80;100.00
13732;BME280;6937;56.096;12.664;2023-02-01T05:30:11;99334.44;;;4.79;100.00
13732;BME280;6937;56.096;12.664;2023-02-01T05:32:37;99332.75;;;4.78;100.00
13732;BME280;6937;56.096;12.664;2023-02-01T05:35:02;99335.94;;;4.83;100.00
13732;BME280;6937;56.096;12.664;2023-02-01T05:37:27;99338.56;;;4.83;100.00
13732;BME280;6937;56.096;12.664;2023-02-01T05:39:53;99346.50;;;4.83;100.00
13732;BME280;6937;56.096;12.664;2023-02-01T05:42:18;99351.59;;;4.86;100.00
13732;BME280;6937;56.096;12.664;2023-02-01T05:44:44;99352.75;;;4.82;100.00
13732;BME280;6937;56.096;12.664;2023-02-01T05:47:09;99350.81;;;4.84;100.00
13732;BME280;6937;56.096;12.664;2023-02-01T05:49:35;99332.09;;;4.87;100.00
13732;BME280;6937;56.096;12.664;2023-02-01T05:52:00;99347.00;;;4.88;100.00
13732;BME280;6937;56.096;12.664;2023-02-01T05:54:26;99348.72;;;4.89;100.00
13732;BME280;6937;56.096;12.664;2023-02-01T05:56:51;99346.06;;;4.89;100.00
13732;BME280;6937;56.096;12.664;2023-02-01T05:59:17;99337.28;;;4.88;100.00
13732;BME280;6937;56.096;12.664;2023-02-01T06:01:42;99335.56;;;4.87;100.00
13732;BME280;6937;56.096;12.664;2023-02-01T06:04:07;99339.63;;;4.80;100.00
13732;BME280;6937;56.096;12.664;2023-02-01T06:06:33;99332.44;;;4.82;100.00
13732;BME280;6937;56.096;12.664;2023-02-01T06:08:59;99335.41;;;4.78;100.00
13732;BME280;6937;56.096;12.664;2023-02-01T06:11:25;99337.31;;;4.76;100.00
13732;BME280;6937;56.096;12.664;2023-02-01T06:13:50;99332.03;;;4.76;100.00
13732;BME280;6937;56.096;12.664;2023-02-01T06:16:16;99348.09;;;4.73;100.00
13732;BME280;6937;56.096;12.664;2023-02-01T06:18:41;99318.28;;;4.71;100.00
13732;BME280;6937;56.096;12.664;2023-02-01T06:21:07;99314.06;;;4.68;100.00
13732;BME280;6937;56.096;12.664;2023-02-01T06:23:33;99311.50;;;4.67;100.00
13732;BME280;6937;56.096;12.664;2023-02-01T06:26:04;99315.22;;;4.64;100.00
13732;BME280;6937;56.096;12.664;2023-02-01T06:28:31;99311.72;;;4.64;100.00
13732;BME280;6937;56.096;12.664;2023-02-01T06:30:57;99313.75;;;4.60;100.00
13732;BME280;6937;56.096;12.664;2023-02-01T06:33:24;99316.63;;;4.57;100.00
13732;BME280;6937;56.096;12.664;2023-02-01T06:35:56;99325.50;;;4.56;100.00
13732;BME280;6937;56.096;12.664;2023-02-01T06:38:22;99322.09;;;4.54;100.00
13732;BME280;6937;56.096;12.664;2023-02-01T06:40:52;99316.09;;;4.52;100.00
13732;BME280;6937;56.096;12.664;2023-02-01T06:43:17;99319.34;;;4.56;100.00
13732;BME280;6937;56.096;12.664;2023-02-01T06:45:42;99335.53;;;4.51;100.00
13732;BME280;6937;56.096;12.664;2023-02-01T06:48:08;99334.69;;;4.51;100.00
13732;BME280;6937;56.096;12.664;2023-02-01T06:50:33;99340.84;;;4.51;100.00
13732;BME280;6937;56.096;12.664;2023-02-01T06:53:00;99336.00;;;4.45;100.00
13732;BME280;6937;56.096;12.664;2023-02-01T06:55:25;99335.22;;;4.43;100.00
13732;BME280;6937;56.096;12.664;2023-02-01T06:57:54;99331.75;;;4.43;100.00
13732;BME280;6937;56.096;12.664;2023-02-01T07:00:22;99333.44;;;4.44;100.00
13732;BME280;6937;56.096;12.664;2023-02-01T07:02:47;99345.09;;;4.41;100.00
13732;BME280;6937;56.096;12.664;2023-02-01T07:05:12;99343.06;;;4.45;100.00
13732;BME280;6937;56.096;12.664;2023-02-01T07:07:37;99339.47;;;4.46;100.00
13732;BME280;6937;56.096;12.664;2023-02-01T07:10:03;99339.25;;;4.49;100.00
13732;BME280;6937;56.096;12.664;2023-02-01T07:12:28;99348.38;;;4.45;100.00
13732;BME280;6937;56.096;12.664;2023-02-01T07:14:54;99339.66;;;4.43;100.00
13732;BME280;6937;56.096;12.664;2023-02-01T07:17:19;99358.00;;;4.46;100.00
13732;BME280;6937;56.096;12.664;2023-02-01T07:19:45;99352.59;;;4.47;100.00
13732;BME280;6937;56.096;12.664;2023-02-01T07:22:10;99367.19;;;4.53;100.00
13732;BME280;6937;56.096;12.664;2023-02-01T07:24:35;99350.25;;;4.55;100.00
13732;BME280;6937;56.096;12.664;2023-02-01T07:27:01;99359.97;;;4.55;100.00
13732;BME280;6937;56.096;12.664;2023-02-01T07:29:26;99349.41;;;4.55;100.00
13732;BME280;6937;56.096;12.664;2023-02-01T07:31:51;99355.31;;;4.58;100.00
13732;BME280;6937;56.096;12.664;2023-02-01T07:34:17;99355.09;;;4.61;100.00
13732;BME280;6937;56.096;12.664;2023-02-01T07:36:42;99346.97;;;4.64;100.00
13732;BME280;6937;56.096;12.664;2023-02-01T07:39:07;99344.53;;;4.61;100.00
13732;BME280;6937;56.096;12.664;2023-02-01T07:41:33;99348.88;;;4.62;100.00
13732;BME280;6937;56.096;12.664;2023-02-01T07:43:58;99372.66;;;4.62;100.00
13732;BME280;6937;56.096;12.664;2023-02-01T07:46:24;99356.16;;;4.59;100.00
13732;BME280;6937;56.096;12.664;2023-02-01T07:48:49;99345.28;;;4.63;100.00
13732;BME280;6937;56.096;12.664;2023-02-01T07:51:16;99366.03;;;4.57;100.00
13732;BME280;6937;56.096;12.664;2023-02-01T07:53:44;99359.34;;;4.64;100.00
13732;BME280;6937;56.096;12.664;2023-02-01T07:56:14;99356.47;;;4.67;100.00
13732;BME280;6937;56.096;12.664;2023-02-01T07:58:40;99359.75;;;4.70;100.00
13732;BME280;6937;56.096;12.664;2023-02-01T08:01:13;99362.31;;;4.72;100.00
13732;BME280;6937;56.096;12.664;2023-02-01T08:03:45;99361.84;;;4.78;100.00
13732;BME280;6937;56.096;12.664;2023-02-01T08:06:10;99366.06;;;4.80;100.00
13732;BME280;6937;56.096;12.664;2023-02-01T08:08:36;99371.19;;;4.83;100.00
13732;BME280;6937;56.096;12.664;2023-02-01T08:11:03;99344.81;;;4.82;100.00
13732;BME280;6937;56.096;12.664;2023-02-01T08:13:29;99348.09;;;4.85;100.00
13732;BME280;6937;56.096;12.664;2023-02-01T08:15:59;99346.06;;;4.89;100.00
13732;BME280;6937;56.096;12.664;2023-02-01T08:18:24;99343.41;;;4.89;100.00
13732;BME280;6937;56.096;12.664;2023-02-01T08:20:50;99344.88;;;4.93;100.00
13732;BME280;6937;56.096;12.664;2023-02-01T08:23:16;99353.78;;;4.92;100.00
13732;BME280;6937;56.096;12.664;2023-02-01T08:25:42;99325.41;;;4.94;100.00
13732;BME280;6937;56.096;12.664;2023-02-01T08:28:07;99326.13;;;4.96;100.00
13732;BME280;6937;56.096;12.664;2023-02-01T08:30:33;99337.66;;;4.95;100.00
13732;BME280;6937;56.096;12.664;2023-02-01T08:32:58;99331.56;;;4.95;100.00
13732;BME280;6937;56.096;12.664;2023-02-01T08:35:23;99342.25;;;4.93;100.00
13732;BME280;6937;56.096;12.664;2023-02-01T08:37:49;99338.66;;;4.94;100.00
13732;BME280;6937;56.096;12.664;2023-02-01T08:40:15;99329.72;;;4.95;100.00
13732;BME280;6937;56.096;12.664;2023-02-01T08:42:41;99352.59;;;4.96;100.00
13732;BME280;6937;56.096;12.664;2023-02-01T08:45:24;99331.31;;;4.98;100.00
13732;BME280;6937;56.096;12.664;2023-02-01T08:47:54;99327.06;;;4.95;100.00
13732;BME280;6937;56.096;12.664;2023-02-01T08:50:20;99329.53;;;4.98;100.00
13732;BME280;6937;56.096;12.664;2023-02-01T08:52:46;99313.66;;;4.98;100.00
13732;BME280;6937;56.096;12.664;2023-02-01T08:55:12;99316.06;;;5.01;100.00
13732;BME280;6937;56.096;12.664;2023-02-01T08:57:38;99316.69;;;5.05;100.00
13732;BME280;6937;56.096;12.664;2023-02-01T09:00:06;99318.16;;;5.09;100.00
13732;BME280;6937;56.096;12.664;2023-02-01T09:02:32;99319.63;;;5.13;100.00
13732;BME280;6937;56.096;12.664;2023-02-01T09:04:57;99300.56;;;5.08;100.00
13732;BME280;6937;56.096;12.664;2023-02-01T09:07:23;99316.44;;;5.08;100.00
13732;BME280;6937;56.096;12.664;2023-02-01T09:09:48;99308.41;;;5.09;100.00
13732;BME280;6937;56.096;12.664;2023-02-01T09:12:14;99302.97;;;5.11;100.00
13732;BME280;6937;56.096;12.664;2023-02-01T09:14:39;99327.56;;;5.13;100.00
13732;BME280;6937;56.096;12.664;2023-02-01T09:17:05;99294.00;;;5.13;100.00
13732;BME280;6937;56.096;12.664;2023-02-01T09:19:31;99285.81;;;5.16;100.00
13732;BME280;6937;56.096;12.664;2023-02-01T09:21:56;99299.28;;;5.13;100.00
13732;BME280;6937;56.096;12.664;2023-02-01T09:24:21;99305.06;;;5.18;100.00
13732;BME280;6937;56.096;12.664;2023-02-01T09:26:47;99297.97;;;5.19;100.00
13732;BME280;6937;56.096;12.664;2023-02-01T09:29:13;99303.41;;;5.17;100.00
13732;BME280;6937;56.096;12.664;2023-02-01T09:31:39;99301.47;;;5.19;100.00
13732;BME280;6937;56.096;12.664;2023-02-01T09:34:06;99307.38;;;5.23;100.00
13732;BME280;6937;56.096;12.664;2023-02-01T09:36:32;99309.94;;;5.24;100.00
13732;BME280;6937;56.096;12.664;2023-02-01T09:38:58;99298.25;;;5.27;100.00
13732;BME280;6937;56.096;12.664;2023-02-01T09:46:41;99295.75;;;5.36;100.00
13732;BME280;6937;56.096;12.664;2023-02-01T09:49:12;99292.78;;;5.41;100.00
13732;BME280;6937;56.096;12.664;2023-02-01T09:51:44;99284.72;;;5.43;100.00
13732;BME280;6937;56.096;12.664;2023-02-01T09:54:17;99280.03;;;5.46;100.00
13732;BME280;6937;56.096;12.664;2023-02-01T09:56:55;99283.41;;;5.48;100.00
13732;BME280;6937;56.096;12.664;2023-02-01T09:59:42;99268.88;;;5.54;100.00
13732;BME280;6937;56.096;12.664;2023-02-01T10:02:16;99275.72;;;5.56;100.00
13732;BME280;6937;56.096;12.664;2023-02-01T10:04:44;99277.19;;;5.60;100.00
13732;BME280;6937;56.096;12.664;2023-02-01T10:07:32;99273.13;;;5.67;100.00
13732;BME280;6937;56.096;12.664;2023-02-01T10:10:10;99276.63;;;5.68;100.00
13732;BME280;6937;56.096;12.664;2023-02-01T10:13:01;99275.06;;;5.65;100.00
13732;BME280;6937;56.096;12.664;2023-02-01T10:18:22;99291.22;;;5.73;100.00
13732;BME280;6937;56.096;12.664;2023-02-01T10:20:57;99292.28;;;5.71;100.00
13732;BME280;6937;56.096;12.664;2023-02-01T10:26:09;99273.13;;;5.78;100.00
13732;BME280;6937;56.096;12.664;2023-02-01T10:28:38;99274.59;;;5.82;100.00
13732;BME280;6937;56.096;12.664;2023-02-01T10:31:05;99276.94;;;5.87;100.00
13732;BME280;6937;56.096;12.664;2023-02-01T10:33:37;99260.44;;;5.95;100.00
13732;BME280;6937;56.096;12.664;2023-02-01T10:38:33;99263.34;;;6.03;100.00
13732;BME280;6937;56.096;12.664;2023-02-01T10:41:12;99276.94;;;5.98;100.00
13732;BME280;6937;56.096;12.664;2023-02-01T10:43:39;99255.97;;;5.95;100.00
13732;BME280;6937;56.096;12.664;2023-02-01T10:46:06;99261.75;;;5.89;100.00
13732;BME280;6937;56.096;12.664;2023-02-01T10:48:32;99254.78;;;5.88;100.00
13732;BME280;6937;56.096;12.664;2023-02-01T10:51:00;99261.22;;;5.84;100.00
13732;BME280;6937;56.096;12.664;2023-02-01T10:56:13;99272.78;;;5.72;100.00
13732;BME280;6937;56.096;12.664;2023-02-01T10:58:46;99261.44;;;5.70;100.00
13732;BME280;6937;56.096;12.664;2023-02-01T11:01:20;99275.91;;;5.66;100.00
13732;BME280;6937;56.096;12.664;2023-02-01T11:03:53;99270.59;;;5.66;100.00
13732;BME280;6937;56.096;12.664;2023-02-01T11:06:27;99285.25;;;5.59;100.00
13732;BME280;6937;56.096;12.664;2023-02-01T11:08:55;99271.53;;;5.54;100.00
13732;BME280;6937;56.096;12.664;2023-02-01T11:11:22;99291.13;;;5.51;100.00
13732;BME280;6937;56.096;12.664;2023-02-01T11:14:13;99294.00;;;5.48;100.00
13732;BME280;6937;56.096;12.664;2023-02-01T11:16:39;99293.06;;;5.49;100.00
13732;BME280;6937;56.096;12.664;2023-02-01T11:19:06;99295.38;;;5.54;100.00
13732;BME280;6937;56.096;12.664;2023-02-01T11:21:33;99275.50;;;5.59;100.00
13732;BME280;6937;56.096;12.664;2023-02-01T11:24:03;99280.94;;;5.58;100.00
13732;BME280;6937;56.096;12.664;2023-02-01T11:26:29;99296.22;;;5.54;100.00
13732;BME280;6937;56.096;12.664;2023-02-01T11:29:01;99281.84;;;5.46;100.00
13732;BME280;6937;56.096;12.664;2023-02-01T11:31:28;99294.72;;;5.39;100.00
13732;BME280;6937;56.096;12.664;2023-02-01T11:33:58;99276.50;;;5.34;100.00
13732;BME280;6937;56.096;12.664;2023-02-01T11:36:27;99277.69;;;5.30;100.00
13732;BME280;6937;56.096;12.664;2023-02-01T11:39:10;99287.56;;;5.28;100.00
13732;BME280;6937;56.096;12.664;2023-02-01T11:44:36;99290.88;;;5.19;100.00
13732;BME280;6937;56.096;12.664;2023-02-01T11:47:29;99305.41;;;5.14;100.00
13732;BME280;6937;56.096;12.664;2023-02-01T11:49:59;99315.38;;;5.10;100.00
13732;BME280;6937;56.096;12.664;2023-02-01T11:55:05;99336.56;;;5.10;100.00
13732;BME280;6937;56.096;12.664;2023-02-01T12:03:45;99356.28;;;5.30;100.00
13732;BME280;6937;56.096;12.664;2023-02-01T12:06:28;99340.78;;;5.36;100.00
13732;BME280;6937;56.096;12.664;2023-02-01T12:12:17;99322.25;;;5.36;100.00
13732;BME280;6937;56.096;12.664;2023-02-01T12:14:59;99338.66;;;5.42;100.00
13732;BME280;6937;56.096;12.664;2023-02-01T12:17:50;99350.50;;;5.49;100.00
13732;BME280;6937;56.096;12.664;2023-02-01T12:20:49;99336.44;;;5.59;100.00
13732;BME280;6937;56.096;12.664;2023-02-01T12:26:13;99320.81;;;5.67;100.00
13732;BME280;6937;56.096;12.664;2023-02-01T12:29:11;99322.75;;;5.65;100.00
13732;BME280;6937;56.096;12.664;2023-02-01T12:34:37;99328.41;;;5.13;100.00
13732;BME280;6937;56.096;12.664;2023-02-01T12:37:34;99325.41;;;4.94;100.00
13732;BME280;6937;56.096;12.664;2023-02-01T12:42:57;99319.69;;;4.87;100.00
13732;BME280;6937;56.096;12.664;2023-02-01T12:45:31;99314.94;;;4.80;100.00
13732;BME280;6937;56.096;12.664;2023-02-01T12:50:54;99322.06;;;4.79;100.00
13732;BME280;6937;56.096;12.664;2023-02-01T12:53:32;99310.00;;;4.75;100.00
13732;BME280;6937;56.096;12.664;2023-02-01T12:56:03;99314.94;;;4.80;100.00
13732;BME280;6937;56.096;12.664;2023-02-01T12:58:44;99314.19;;;4.91;100.00
13732;BME280;6937;56.096;12.664;2023-02-01T13:01:28;99313.66;;;4.98;100.00
13732;BME280;6937;56.096;12.664;2023-02-01T13:03:58;99313.19;;;5.04;100.00
13732;BME280;6937;56.096;12.664;2023-02-01T13:06:32;99313.16;;;5.52;100.00
13732;BME280;6937;56.096;12.664;2023-02-01T13:09:33;99304.16;;;5.89;100.00
13732;BME280;6937;56.096;12.664;2023-02-01T13:12:10;99306.38;;;6.06;100.00
13732;BME280;6937;56.096;12.664;2023-02-01T13:14:52;99286.38;;;5.78;100.00
13732;BME280;6937;56.096;12.664;2023-02-01T13:17:22;99282.34;;;5.51;100.00
13732;BME280;6937;56.096;12.664;2023-02-01T13:20:19;99281.47;;;5.39;100.00
13732;BME280;6937;56.096;12.664;2023-02-01T13:22:45;99294.44;;;6.45;100.00
13732;BME280;6937;56.096;12.664;2023-02-01T13:25:38;99269.50;;;7.02;100.00
13732;BME280;6937;56.096;12.664;2023-02-01T13:28:16;99229.50;;;6.71;100.00
13732;BME280;6937;56.096;12.664;2023-02-01T13:44:59;99253.47;;;5.24;100.00
13732;BME280;6937;56.096;12.664;2023-02-01T13:49:50;99265.19;;;5.09;100.00
13732;BME280;6937;56.096;12.664;2023-02-01T13:52:43;99263.13;;;5.01;100.00
13732;BME280;6937;56.096;12.664;2023-02-01T13:57:40;99283.78;;;4.96;100.00
13732;BME280;6937;56.096;12.664;2023-02-01T14:00:30;99292.78;;;4.94;100.00
13732;BME280;6937;56.096;12.664;2023-02-01T14:10:59;99303.69;;;5.02;100.00
13732;BME280;6937;56.096;12.664;2023-02-01T14:23:56;99319.88;;;4.97;100.00
13732;BME280;6937;56.096;12.664;2023-02-01T14:29:02;99316.72;;;4.92;100.00
13732;BME280;6937;56.096;12.664;2023-02-01T14:31:40;99322.56;;;4.84;100.00
13732;BME280;6937;56.096;12.664;2023-02-01T14:34:18;99322.78;;;4.81;100.00
13732;BME280;6937;56.096;12.664;2023-02-01T14:37:00;99315.31;;;4.75;100.00
13732;BME280;6937;56.096;12.664;2023-02-01T14:39:31;99314.78;;;4.70;100.00
13732;BME280;6937;56.096;12.664;2023-02-01T14:42:04;99322.38;;;4.75;100.00
13732;BME280;6937;56.096;12.664;2023-02-01T14:44:35;99315.41;;;4.74;100.00
13732;BME280;6937;56.096;12.664;2023-02-01T14:47:10;99321.22;;;4.79;100.00
13732;BME280;6937;56.096;12.664;2023-02-01T14:50:13;99320.38;;;4.78;100.00
13732;BME280;6937;56.096;12.664;2023-02-01T14:52:46;99329.25;;;4.77;100.00
13732;BME280;6937;56.096;12.664;2023-02-01T14:55:21;99324.16;;;4.87;100.00
13732;BME280;6937;56.096;12.664;2023-02-01T14:57:50;99331.75;;;4.92;100.00
13732;BME280;6937;56.096;12.664;2023-02-01T15:00:24;99328.28;;;4.91;100.00
13732;BME280;6937;56.096;12.664;2023-02-01T15:02:51;99326.34;;;4.93;100.00
13732;BME280;6937;56.096;12.664;2023-02-01T15:05:26;99320.22;;;4.93;100.00
13732;BME280;6937;56.096;12.664;2023-02-01T15:07:55;99314.81;;;4.94;100.00